createdAt,value
2023-03-22T00:00:34.727Z,83.13
2023-03-22T00:01:34.713Z,81.67
2023-03-22T00:02:34.755Z,81.28
2023-03-22T00:03:34.717Z,81.20
2023-03-22T00:04:34.706Z,81.75
2023-03-22T00:05:34.649Z,82.47
2023-03-22T00:06:34.648Z,83.62
2023-03-22T00:07:34.644Z,83.62
2023-03-22T00:08:34.608Z,84.04
2023-03-22T00:09:34.609Z,84.55
2023-03-22T00:10:34.646Z,84.81
2023-03-22T00:11:34.608Z,83.71
2023-03-22T00:12:34.565Z,83.71
2023-03-22T00:13:35.711Z,84.04
2023-03-22T00:14:34.553Z,84.04
2023-03-22T00:15:34.519Z,82.96
2023-03-22T00:16:34.617Z,82.47
2023-03-22T00:17:34.498Z,81.12
2023-03-22T00:18:34.492Z,79.81
2023-03-22T00:19:34.463Z,78.40
2023-03-22T00:20:34.470Z,77.03
2023-03-22T00:21:34.452Z,76.26
2023-03-22T00:22:34.499Z,74.38
2023-03-22T00:23:34.433Z,71.96
2023-03-22T00:24:34.417Z,69.98
2023-03-22T00:25:34.396Z,68.05
2023-03-22T00:26:34.386Z,66.28
2023-03-22T00:27:34.377Z,63.96
2023-03-22T00:28:34.389Z,62.67
2023-03-22T00:29:34.357Z,62.12
2023-03-22T00:30:34.341Z,60.77
2023-03-22T00:31:34.378Z,59.74
2023-03-22T00:32:34.319Z,59.74
2023-03-22T00:33:34.308Z,59.74
2023-03-22T00:34:34.316Z,58.94
2023-03-22T00:35:34.328Z,58.41
2023-03-22T00:36:34.264Z,57.14
2023-03-22T00:37:34.275Z,56.26
2023-03-22T00:38:41.984Z,55.59
2023-03-22T00:39:34.225Z,55.01
2023-03-22T00:40:34.239Z,54.72
2023-03-22T00:41:34.211Z,54.33
2023-03-22T00:42:34.181Z,54.22
2023-03-22T00:43:34.178Z,54.72
2023-03-22T00:44:34.153Z,54.72
2023-03-22T00:45:34.149Z,55.11
2023-03-22T00:46:34.231Z,54.65
2023-03-22T00:47:34.137Z,55.40
2023-03-22T00:48:34.122Z,57.21
2023-03-22T00:49:34.101Z,59.57
2023-03-22T00:50:34.072Z,61.57
2023-03-22T00:51:34.061Z,64.06
2023-03-22T00:52:34.081Z,66.65
2023-03-22T00:53:34.061Z,68.39
2023-03-22T00:54:34.040Z,69.46
2023-03-22T00:55:34.023Z,71.29
2023-03-22T00:56:34.071Z,72.26
2023-03-22T00:57:34.038Z,73.40
2023-03-22T00:58:34.017Z,73.66
2023-03-22T00:59:33.976Z,73.98
2023-03-22T01:00:33.963Z,73.53
2023-03-22T01:01:34.013Z,73.15
2023-03-22T01:02:33.928Z,71.29
2023-03-22T01:03:33.941Z,69.00
2023-03-22T01:04:33.938Z,66.76
2023-03-22T01:05:33.885Z,63.67
2023-03-22T01:06:33.879Z,61.26
2023-03-22T01:07:33.860Z,59.48
2023-03-22T01:08:33.839Z,57.45
2023-03-22T01:09:33.873Z,56.07
2023-03-22T01:10:33.860Z,55.26
2023-03-22T01:11:33.810Z,53.91
2023-03-22T01:12:33.853Z,53.53
2023-03-22T01:13:33.804Z,52.53
2023-03-22T01:14:33.775Z,51.06
2023-03-22T01:15:33.764Z,49.35
2023-03-22T01:16:33.856Z,47.73
2023-03-22T01:17:33.733Z,46.70
2023-03-22T01:18:33.731Z,46.49
2023-03-22T01:19:33.711Z,45.83
2023-03-22T01:20:33.689Z,45.98
2023-03-22T01:21:33.694Z,46.13
2023-03-22T01:22:33.690Z,46.13
2023-03-22T01:23:33.656Z,46.18
2023-03-22T01:24:33.646Z,46.54
2023-03-22T01:25:33.613Z,46.85
2023-03-22T01:26:33.620Z,47.67
2023-03-22T01:27:33.597Z,48.90
2023-03-22T01:28:33.633Z,49.01
2023-03-22T01:29:33.591Z,48.72
2023-03-22T01:30:33.633Z,48.61
2023-03-22T01:31:33.560Z,48.58
2023-03-22T01:32:33.528Z,48.78
2023-03-22T01:33:33.534Z,48.50
2023-03-22T01:34:33.564Z,48.44
2023-03-22T01:35:33.554Z,48.47
2023-03-22T01:36:33.480Z,49.04
2023-03-22T01:37:33.469Z,49.24
2023-03-22T01:38:33.456Z,49.76
2023-03-22T01:39:33.440Z,50.97
2023-03-22T01:40:33.505Z,51.66
2023-03-22T01:41:33.421Z,52.89
2023-03-22T01:42:33.413Z,53.71
2023-03-22T01:43:33.397Z,54.97
2023-03-22T01:44:33.398Z,56.22
2023-03-22T01:45:33.364Z,57.29
2023-03-22T01:46:33.494Z,57.76
2023-03-22T01:47:33.349Z,58.78
2023-03-22T01:48:33.322Z,60.38
2023-03-22T01:49:33.329Z,61.21
2023-03-22T01:50:33.304Z,61.89
2023-03-22T01:51:33.310Z,61.75
2023-03-22T01:52:33.327Z,61.80
2023-03-22T01:53:33.270Z,60.03
2023-03-22T01:54:33.277Z,57.41
2023-03-22T01:55:33.257Z,55.48
2023-03-22T01:56:33.228Z,54.40
2023-03-22T01:57:33.234Z,54.29
2023-03-22T01:58:33.256Z,53.88
2023-03-22T01:59:33.187Z,52.96
2023-03-22T02:00:33.207Z,52.33
2023-03-22T02:01:33.214Z,51.16
2023-03-22T02:02:33.227Z,50.15
2023-03-22T02:03:33.172Z,49.10
2023-03-22T02:04:33.153Z,48.06
2023-03-22T02:05:33.127Z,47.41
2023-03-22T02:06:33.123Z,46.70
2023-03-22T02:07:33.088Z,46.08
2023-03-22T02:08:33.062Z,45.44
2023-03-22T02:09:33.070Z,43.64
2023-03-22T02:10:33.077Z,42.07
2023-03-22T02:11:33.047Z,41.09
2023-03-22T02:12:33.046Z,40.53
2023-03-22T02:13:33.014Z,40.15
2023-03-22T02:14:33.008Z,40.61
2023-03-22T02:15:33.065Z,40.61
2023-03-22T02:16:33.011Z,40.61
2023-03-22T02:17:32.982Z,40.11
2023-03-22T02:18:32.969Z,39.73
2023-03-22T02:19:32.933Z,39.32
2023-03-22T02:20:32.929Z,39.14
2023-03-22T02:21:32.913Z,38.88
2023-03-22T02:22:32.925Z,38.96
2023-03-22T02:23:32.889Z,38.35
2023-03-22T02:24:32.921Z,37.77
2023-03-22T02:25:32.874Z,36.68
2023-03-22T02:26:32.877Z,34.97
2023-03-22T02:27:32.847Z,33.74
2023-03-22T02:28:32.907Z,32.54
2023-03-22T02:29:33.024Z,31.51
2023-03-22T02:30:32.824Z,30.31
2023-03-22T02:31:32.863Z,28.98
2023-03-22T02:32:32.776Z,27.83
2023-03-22T02:33:32.757Z,26.70
2023-03-22T02:34:32.773Z,25.97
2023-03-22T02:35:32.833Z,25.18
2023-03-22T02:36:32.728Z,24.42
2023-03-22T02:37:32.719Z,23.85
2023-03-22T02:38:32.707Z,23.51
2023-03-22T02:39:32.694Z,23.20
2023-03-22T02:40:32.702Z,22.92
2023-03-22T02:41:32.665Z,22.69
2023-03-22T02:42:32.650Z,22.52
2023-03-22T02:43:32.640Z,22.50
2023-03-22T02:44:32.620Z,22.50
2023-03-22T02:45:32.605Z,22.55
2023-03-22T02:46:32.647Z,22.67
2023-03-22T02:47:32.569Z,22.79
2023-03-22T02:48:32.566Z,22.69
2023-03-22T02:49:32.545Z,22.48
2023-03-22T02:50:32.538Z,22.03
2023-03-22T02:51:32.547Z,21.94
2023-03-22T02:52:32.540Z,21.75
2023-03-22T02:53:32.519Z,21.55
2023-03-22T02:54:32.472Z,21.49
2023-03-22T02:55:32.457Z,21.38
2023-03-22T02:56:32.491Z,21.23
2023-03-22T02:57:32.440Z,20.95
2023-03-22T02:58:32.477Z,20.83
2023-03-22T02:59:32.414Z,20.77
2023-03-22T03:00:32.560Z,20.64
2023-03-22T03:01:32.397Z,20.56
2023-03-22T03:02:32.395Z,20.40
2023-03-22T03:03:32.374Z,20.38
2023-03-22T03:04:32.401Z,20.36
2023-03-22T03:05:32.329Z,20.48
2023-03-22T03:06:32.355Z,20.62
2023-03-22T03:07:32.332Z,20.85
2023-03-22T03:08:32.322Z,21.08
2023-03-22T03:09:32.290Z,21.18
2023-03-22T03:10:32.322Z,21.58
2023-03-22T03:11:32.491Z,21.96
2023-03-22T03:12:32.247Z,22.33
2023-03-22T03:13:32.269Z,22.74
2023-03-22T03:14:32.242Z,23.07
2023-03-22T03:15:32.209Z,23.07
2023-03-22T03:16:32.253Z,23.25
2023-03-22T03:17:32.201Z,23.20
2023-03-22T03:18:32.188Z,23.30
2023-03-22T03:19:32.191Z,23.30
2023-03-22T03:20:32.168Z,23.51
2023-03-22T03:21:32.147Z,23.61
2023-03-22T03:22:32.159Z,23.78
2023-03-22T03:23:32.103Z,23.89
2023-03-22T03:24:32.119Z,24.03
2023-03-22T03:25:32.078Z,23.80
2023-03-22T03:26:32.078Z,24.00
2023-03-22T03:27:32.054Z,24.08
2023-03-22T03:28:32.076Z,24.00
2023-03-22T03:29:32.051Z,23.97
2023-03-22T03:30:32.027Z,24.10
2023-03-22T03:31:32.055Z,24.08
2023-03-22T03:32:31.986Z,24.32
2023-03-22T03:33:31.977Z,24.46
2023-03-22T03:34:31.992Z,24.49
2023-03-22T03:35:31.982Z,24.49
2023-03-22T03:36:31.932Z,24.49
2023-03-22T03:37:31.918Z,24.49
2023-03-22T03:38:31.929Z,24.33
2023-03-22T03:39:31.923Z,24.40
2023-03-22T03:40:31.945Z,24.43
2023-03-22T03:41:52.919Z,24.33
2023-03-22T03:50:22.984Z,24.56
2023-03-22T03:50:28.438Z,25.04
2023-03-22T03:51:28.947Z,23.43
2023-03-22T03:52:28.370Z,22.99
2023-03-22T03:53:28.355Z,22.69
2023-03-22T03:54:28.352Z,22.60
2023-03-22T03:55:28.342Z,22.57
2023-03-22T03:56:28.339Z,22.82
2023-03-22T03:57:28.327Z,22.67
2023-03-22T03:58:28.296Z,22.84
2023-03-22T03:59:28.298Z,22.79
2023-03-22T04:00:28.275Z,22.79
2023-03-22T04:01:28.286Z,22.72
2023-03-22T04:02:28.287Z,22.94
2023-03-22T04:03:28.256Z,23.04
2023-03-22T04:04:28.339Z,23.02
2023-03-22T04:05:28.210Z,23.04
2023-03-22T04:06:28.369Z,22.87
2023-03-22T04:07:28.216Z,22.99
2023-03-22T04:08:28.418Z,22.89
2023-03-22T04:09:28.154Z,22.89
2023-03-22T04:10:28.150Z,22.74
2023-03-22T04:11:28.153Z,22.69
2023-03-22T04:12:28.119Z,22.79
2023-03-22T04:13:28.126Z,22.69
2023-03-22T04:14:28.092Z,22.45
2023-03-22T04:15:28.082Z,22.45
2023-03-22T04:16:28.104Z,22.60
2023-03-22T04:17:28.057Z,22.65
2023-03-22T04:18:28.036Z,22.79
2023-03-22T04:19:28.062Z,22.84
2023-03-22T04:20:28.018Z,22.92
2023-03-22T04:21:28.013Z,23.02
2023-03-22T04:22:28.002Z,23.07
2023-03-22T04:23:28.017Z,22.99
2023-03-22T04:24:27.990Z,22.94
2023-03-22T04:25:27.990Z,22.87
2023-03-22T04:26:27.955Z,22.89
2023-03-22T04:27:27.921Z,22.77
2023-03-22T04:28:27.916Z,22.97
2023-03-22T04:29:27.898Z,22.89
2023-03-22T04:30:27.898Z,22.97
2023-03-22T04:31:27.966Z,22.94
2023-03-22T04:32:27.853Z,22.87
2023-03-22T04:33:27.859Z,22.84
2023-03-22T04:34:27.837Z,22.89
2023-03-22T04:35:27.842Z,22.94
2023-03-22T04:36:27.814Z,22.94
2023-03-22T04:37:27.814Z,22.99
2023-03-22T04:38:27.778Z,22.97
2023-03-22T04:39:27.774Z,23.09
2023-03-22T04:40:27.774Z,23.07
2023-03-22T04:41:29.455Z,23.07
2023-03-22T04:42:27.732Z,23.04
2023-03-22T04:43:27.752Z,23.04
2023-03-22T04:44:27.709Z,22.99
2023-03-22T04:45:27.690Z,23.09
2023-03-22T04:46:27.761Z,23.07
2023-03-22T04:47:27.660Z,23.12
2023-03-22T04:48:27.657Z,23.09
2023-03-22T04:49:27.666Z,23.04
2023-03-22T04:50:27.625Z,23.14
2023-03-22T04:51:27.634Z,23.25
2023-03-22T04:52:27.607Z,23.22
2023-03-22T04:53:27.750Z,23.59
2023-03-22T04:54:27.591Z,23.51
2023-03-22T04:55:27.660Z,23.62
2023-03-22T04:56:27.564Z,23.48
2023-03-22T04:57:27.554Z,23.59
2023-03-22T04:58:27.536Z,23.68
2023-03-22T04:59:27.507Z,23.80
2023-03-22T05:00:27.525Z,23.77
2023-03-22T05:01:27.548Z,23.93
2023-03-22T05:02:27.501Z,23.89
2023-03-22T05:03:27.460Z,23.92
2023-03-22T05:04:27.446Z,23.95
2023-03-22T05:05:27.453Z,23.97
2023-03-22T05:06:27.437Z,24.01
2023-03-22T05:07:27.446Z,23.93
2023-03-22T05:08:27.400Z,24.29
2023-03-22T05:09:27.386Z,24.17
2023-03-22T05:10:27.403Z,24.33
2023-03-22T05:11:27.372Z,24.22
2023-03-22T05:12:27.350Z,24.45
2023-03-22T05:13:27.382Z,24.39
2023-03-22T05:14:27.425Z,24.50
2023-03-22T05:15:27.307Z,24.52
2023-03-22T05:16:27.359Z,24.56
2023-03-22T05:17:27.290Z,24.65
2023-03-22T05:18:27.532Z,24.69
2023-03-22T05:19:27.304Z,24.59
2023-03-22T05:20:27.305Z,24.58
2023-03-22T05:21:27.256Z,24.63
2023-03-22T05:22:27.229Z,24.43
2023-03-22T05:23:27.254Z,24.49
2023-03-22T05:24:27.207Z,24.50
2023-03-22T05:25:27.239Z,24.33
2023-03-22T05:26:27.172Z,24.45
2023-03-22T05:27:27.167Z,24.43
2023-03-22T05:28:27.150Z,24.40
2023-03-22T05:29:27.143Z,24.24
2023-03-22T05:30:27.140Z,24.25
2023-03-22T05:31:27.198Z,24.12
2023-03-22T05:32:27.102Z,24.04
2023-03-22T05:33:27.100Z,24.01
2023-03-22T05:34:27.104Z,23.91
2023-03-22T05:35:27.109Z,23.70
2023-03-22T05:36:27.053Z,23.77
2023-03-22T05:37:27.071Z,23.96
2023-03-22T05:38:27.037Z,23.82
2023-03-22T05:39:27.009Z,23.95
2023-03-22T05:40:27.804Z,23.84
2023-03-22T05:41:26.985Z,23.99
2023-03-22T05:42:27.001Z,23.88
2023-03-22T05:43:26.994Z,24.01
2023-03-22T05:44:26.952Z,23.97
2023-03-22T05:48:31.467Z,27.43
2023-03-22T05:49:32.423Z,26.46
2023-03-22T05:50:32.413Z,26.00
2023-03-22T05:51:32.421Z,25.51
2023-03-22T05:52:32.394Z,25.22
2023-03-22T05:53:32.405Z,25.18
2023-03-22T05:54:32.482Z,24.90
2023-03-22T05:55:32.355Z,24.79
2023-03-22T05:56:32.344Z,24.38
2023-03-22T05:57:32.332Z,24.33
2023-03-22T05:58:32.358Z,24.17
2023-03-22T05:59:32.351Z,24.06
2023-03-22T06:00:32.311Z,24.03
2023-03-22T06:01:32.315Z,23.97
2023-03-22T06:02:32.264Z,23.78
2023-03-22T06:03:32.293Z,23.59
2023-03-22T06:04:32.243Z,23.38
2023-03-22T06:08:02.367Z,30.96
2023-03-22T06:09:10.458Z,29.55
2023-03-22T06:09:56.511Z,28.45
2023-03-22T06:10:56.483Z,27.68
2023-03-22T06:11:56.476Z,27.23
2023-03-22T06:12:56.471Z,26.76
2023-03-22T06:13:56.473Z,26.56
2023-03-22T06:14:56.435Z,26.36
2023-03-22T06:15:56.421Z,25.97
2023-03-22T06:16:56.437Z,25.84
2023-03-22T06:17:56.461Z,25.88
2023-03-22T06:18:56.372Z,25.94
2023-03-22T06:19:56.394Z,26.08
2023-03-22T06:20:56.360Z,27.02
2023-03-22T06:21:56.342Z,27.68
2023-03-22T06:22:56.344Z,28.94
2023-03-22T06:23:56.315Z,30.31
2023-03-22T06:24:56.300Z,31.97
2023-03-22T06:25:56.328Z,33.39
2023-03-22T06:26:56.267Z,35.21
2023-03-22T06:27:56.260Z,37.50
2023-03-22T06:28:56.251Z,39.14
2023-03-22T06:29:56.231Z,39.84
2023-03-22T06:30:56.325Z,40.89
2023-03-22T06:31:56.255Z,41.86
2023-03-22T06:32:56.196Z,42.50
2023-03-22T06:33:56.184Z,42.97
2023-03-22T06:34:56.195Z,43.74
2023-03-22T06:35:56.237Z,44.57
2023-03-22T06:36:56.136Z,45.14
2023-03-22T06:37:56.160Z,46.18
2023-03-22T06:38:56.121Z,47.59
2023-03-22T06:39:56.106Z,50.45
2023-03-22T06:40:56.089Z,52.96
2023-03-22T06:41:56.082Z,55.15
2023-03-22T06:42:56.053Z,56.75
2023-03-22T06:43:56.066Z,59.44
2023-03-22T06:44:56.040Z,61.39
2023-03-22T06:45:56.044Z,67.29
2023-03-22T06:46:56.002Z,74.71
2023-03-22T06:47:56.033Z,87.27
2023-03-22T06:48:55.991Z,98.38
2023-03-22T06:49:56.005Z,110.17
2023-03-22T06:50:55.970Z,123.26
2023-03-22T06:51:55.944Z,146.58
2023-03-22T06:52:55.938Z,172.08
2023-03-22T06:53:55.922Z,196.01
2023-03-22T06:54:55.894Z,216.83
2023-03-22T06:55:55.926Z,240.32
2023-03-22T06:56:55.879Z,262.24
2023-03-22T06:57:55.865Z,269.95
2023-03-22T06:58:55.848Z,266.69
2023-03-22T06:59:55.857Z,263.50
2023-03-22T07:00:55.927Z,259.77
2023-03-22T07:01:55.847Z,262.04
2023-03-22T07:02:55.809Z,270.17
2023-03-22T07:03:55.792Z,293.18
2023-03-22T07:06:23.069Z,314.67
2023-03-22T07:06:28.476Z,332.05
2023-03-22T07:07:28.502Z,316.17
2023-03-22T07:08:28.438Z,321.40
2023-03-22T07:09:29.050Z,352.59
2023-03-22T07:10:29.057Z,371.20
2023-03-22T07:11:28.411Z,365.46
2023-03-22T07:12:28.406Z,393.80
2023-03-22T07:13:28.418Z,410.65
2023-03-22T07:14:28.381Z,429.56
2023-03-22T07:15:28.358Z,437.39
2023-03-22T07:16:28.411Z,448.48
2023-03-22T07:17:28.346Z,460.79
2023-03-22T07:18:28.321Z,485.42
2023-03-22T07:19:28.358Z,512.45
2023-03-22T07:20:28.302Z,516.00
2023-03-22T07:21:28.284Z,501.36
2023-03-22T07:22:28.283Z,502.86
2023-03-22T07:23:28.264Z,516.00
2023-03-22T07:24:28.253Z,533.20
2023-03-22T07:25:28.268Z,533.62
2023-03-22T07:26:28.216Z,533.20
2023-03-22T07:27:28.224Z,538.76
2023-03-22T07:28:28.203Z,561.26
2023-03-22T07:29:28.188Z,562.67
2023-03-22T07:30:28.323Z,565.51
2023-03-22T07:31:28.195Z,580.66
2023-03-22T07:32:28.192Z,577.67
2023-03-22T07:33:28.138Z,576.68
2023-03-22T07:34:28.131Z,579.16
2023-03-22T07:35:28.133Z,589.32
2023-03-22T07:36:28.093Z,612.42
2023-03-22T07:37:28.118Z,618.63
2023-03-22T07:38:28.081Z,603.08
2023-03-22T07:39:28.077Z,591.40
2023-03-22T07:40:28.046Z,597.71
2023-03-22T07:41:28.029Z,599.85
2023-03-22T07:42:28.029Z,608.54
2023-03-22T07:43:28.055Z,629.05
2023-03-22T07:44:28.015Z,636.80
2023-03-22T07:45:28.046Z,634.40
2023-03-22T07:46:28.007Z,642.90
2023-03-22T07:47:40.277Z,647.86
2023-03-22T07:48:27.996Z,648.48
2023-03-22T07:49:27.980Z,652.26
2023-03-22T07:50:27.942Z,669.15
2023-03-22T07:51:27.909Z,685.54
2023-03-22T07:52:27.939Z,689.05
2023-03-22T07:53:27.905Z,695.47
2023-03-22T07:54:33.939Z,717.00
2023-03-22T07:55:27.904Z,727.09
2023-03-22T07:56:27.853Z,727.09
2023-03-22T07:57:27.877Z,751.40
2023-03-22T07:58:27.829Z,761.18
2023-03-22T07:59:27.843Z,755.62
2023-03-22T08:00:27.806Z,765.51
2023-03-22T08:01:27.843Z,761.18
2023-03-22T08:02:27.854Z,762.47
2023-03-22T08:03:27.799Z,770.33
2023-03-22T08:04:27.771Z,796.33
2023-03-22T08:05:27.750Z,790.71
2023-03-22T08:06:27.722Z,802.51
2023-03-22T08:07:27.760Z,808.78
2023-03-22T08:08:27.708Z,782.89
2023-03-22T08:09:27.715Z,802.03
2023-03-22T08:10:27.749Z,833.33
2023-03-22T08:11:27.673Z,860.52
2023-03-22T08:12:27.665Z,851.80
2023-03-22T08:13:27.703Z,856.69
2023-03-22T08:14:36.275Z,872.24
2023-03-22T08:15:27.637Z,872.24
2023-03-22T08:16:27.616Z,864.95
2023-03-22T08:17:27.604Z,862.73
2023-03-22T08:18:27.588Z,861.63
2023-03-22T08:19:27.616Z,857.23
2023-03-22T08:20:27.679Z,863.29
2023-03-22T08:21:27.538Z,861.08
2023-03-22T08:22:27.536Z,867.18
2023-03-22T08:23:40.384Z,861.63
2023-03-22T08:24:27.526Z,842.20
2023-03-22T08:25:27.518Z,864.95
2023-03-22T08:26:27.487Z,883.71
2023-03-22T08:27:27.482Z,889.55
2023-03-22T08:28:27.499Z,900.27
2023-03-22T08:29:27.445Z,901.47
2023-03-22T08:30:27.530Z,884.29
2023-03-22T08:31:27.544Z,875.08
2023-03-22T08:32:27.431Z,849.12
2023-03-22T08:33:27.435Z,802.51
2023-03-22T08:34:27.399Z,842.73
2023-03-22T08:35:27.402Z,810.73
2023-03-22T08:36:27.388Z,837.48
2023-03-22T08:37:27.386Z,843.26
2023-03-22T08:38:27.365Z,772.54
2023-03-22T08:39:27.329Z,739.08
2023-03-22T08:40:27.502Z,724.73
2023-03-22T08:41:27.312Z,698.37
2023-03-22T08:42:27.313Z,704.22
2023-03-22T08:43:27.333Z,738.27
2023-03-22T08:44:27.279Z,729.46
2023-03-22T08:45:27.256Z,733.44
2023-03-22T08:46:27.289Z,777.91
2023-03-22T08:47:27.236Z,824.14
2023-03-22T08:48:27.257Z,829.22
2023-03-22T08:49:27.242Z,842.20
2023-03-22T08:50:27.204Z,846.44
2023-03-22T08:51:27.216Z,844.85
2023-03-22T08:52:27.197Z,828.20
2023-03-22T08:53:27.170Z,812.20
2023-03-22T08:54:27.158Z,809.75
2023-03-22T08:55:27.172Z,816.64
2023-03-22T08:56:27.129Z,806.84
2023-03-22T08:57:27.111Z,813.67
2023-03-22T08:58:27.113Z,836.44
2023-03-22T08:59:27.137Z,837.48
2023-03-22T09:00:33.987Z,843.79
2023-03-22T09:01:27.272Z,862.18
2023-03-22T09:02:27.078Z,871.11
2023-03-22T09:03:27.072Z,888.96
2023-03-22T09:04:27.059Z,916.21
2023-03-22T09:05:27.049Z,928.23
2023-03-22T09:06:27.007Z,959.34
2023-03-22T09:07:27.020Z,973.93
2023-03-22T09:08:27.009Z,964.16
2023-03-22T09:09:26.989Z,930.15
2023-03-22T09:10:26.958Z,897.26
2023-03-22T09:11:26.947Z,893.69
2023-03-22T09:12:27.055Z,886.03
2023-03-22T09:13:26.990Z,919.97
2023-03-22T09:14:26.995Z,933.38
2023-03-22T09:15:26.903Z,943.20
2023-03-22T09:16:26.944Z,956.61
2023-03-22T09:17:47.957Z,959.34
2023-03-22T09:18:26.904Z,941.22
2023-03-22T09:19:26.900Z,932.73
2023-03-22T09:20:26.854Z,941.22
2023-03-22T09:21:26.839Z,969.72
2023-03-22T09:22:26.831Z,1015.86
2023-03-22T09:23:26.831Z,1015.86
2023-03-22T09:24:26.798Z,1018.17
2023-03-22T09:25:26.831Z,1007.49
2023-03-22T09:26:26.887Z,1010.52
2023-03-22T09:27:26.770Z,1032.23
2023-03-22T09:28:26.835Z,1076.86
2023-03-22T09:29:26.757Z,1084.68
2023-03-22T09:30:26.732Z,1097.96
2023-03-22T09:31:26.834Z,1137.90
2023-03-22T09:32:26.744Z,1109.74
2023-03-22T09:33:26.773Z,1082.06
2023-03-22T09:34:26.734Z,1049.14
2023-03-22T09:35:26.753Z,1058.22
2023-03-22T09:36:26.678Z,1101.56
2023-03-22T09:37:26.703Z,1103.36
2023-03-22T09:38:26.640Z,1084.68
2023-03-22T09:39:26.630Z,1087.31
2023-03-22T09:40:26.619Z,1064.92
2023-03-22T09:41:26.607Z,1042.64
2023-03-22T09:42:26.589Z,1029.86
2023-03-22T09:43:26.607Z,1041.02
2023-03-22T09:44:26.572Z,1118.97
2023-03-22T09:45:26.558Z,1157.49
2023-03-22T09:46:26.600Z,1148.59
2023-03-22T09:47:30.768Z,1143.71
2023-03-22T09:48:26.630Z,1126.46
2023-03-22T09:49:26.586Z,1128.35
2023-03-22T09:50:26.579Z,1121.77
2023-03-22T09:51:26.516Z,1153.52
2023-03-22T09:52:26.536Z,1192.38
2023-03-22T09:53:26.496Z,1167.53
2023-03-22T09:54:26.468Z,1196.62
2023-03-22T09:55:26.506Z,1236.21
2023-03-22T09:56:26.439Z,1200.89
2023-03-22T09:57:26.439Z,1130.25
2023-03-22T09:58:26.451Z,1155.50
2023-03-22T09:59:26.406Z,1171.60
2023-03-22T10:00:26.477Z,1150.56
2023-03-22T10:01:26.646Z,1137.90
2023-03-22T10:02:26.410Z,1177.76
2023-03-22T10:03:26.379Z,1141.77
2023-03-22T10:04:26.556Z,1120.83
2023-03-22T10:05:27.109Z,1130.25
2023-03-22T10:06:28.214Z,1112.49
2023-03-22T10:07:26.352Z,1073.42
2023-03-22T10:08:26.310Z,1028.29
2023-03-22T10:09:26.295Z,1042.64
2023-03-22T10:10:26.290Z,1049.14
2023-03-22T10:11:26.273Z,1036.21
2023-03-22T10:12:26.308Z,1034.61
2023-03-22T10:13:26.295Z,1032.23
2023-03-22T10:14:26.239Z,1025.15
2023-03-22T10:15:26.235Z,1037.01
2023-03-22T10:16:26.260Z,1059.89
2023-03-22T10:17:26.203Z,996.30
2023-03-22T10:18:26.205Z,1044.25
2023-03-22T10:19:26.266Z,1063.24
2023-03-22T10:20:26.172Z,1102.46
2023-03-22T10:21:26.159Z,1135.98
2023-03-22T10:22:26.144Z,1139.83
2023-03-22T10:23:26.163Z,1159.48
2023-03-22T10:24:26.159Z,1179.82
2023-03-22T10:25:26.155Z,1170.58
2023-03-22T10:26:26.120Z,1175.70
2023-03-22T10:27:26.113Z,1157.49
2023-03-22T10:28:26.103Z,1143.71
2023-03-22T10:29:26.084Z,1147.61
2023-03-22T10:30:26.081Z,1177.76
2023-03-22T10:31:26.124Z,1159.48
2023-03-22T10:32:26.026Z,1190.27
2023-03-22T10:33:26.038Z,1237.35
2023-03-22T10:34:26.043Z,1280.95
2023-03-22T10:35:26.089Z,1270.07
2023-03-22T10:36:26.000Z,1316.05
2023-03-22T10:37:26.061Z,1349.05
2023-03-22T10:38:26.025Z,1326.43
2023-03-22T10:39:25.975Z,1318.63
2023-03-22T10:40:25.956Z,1247.68
2023-03-22T10:41:25.936Z,1224.95
2023-03-22T10:42:25.950Z,1220.51
2023-03-22T10:43:25.952Z,1253.49
2023-03-22T10:44:25.895Z,1222.73
2023-03-22T10:45:25.892Z,1170.58
2023-03-22T10:46:25.893Z,1210.62
2023-03-22T10:47:25.869Z,1210.62
2023-03-22T10:48:25.883Z,1228.31
2023-03-22T10:49:25.910Z,1227.19
2023-03-22T10:50:25.841Z,1254.66
2023-03-22T10:51:25.842Z,1293.27
2023-03-22T10:52:25.814Z,1295.76
2023-03-22T10:53:25.806Z,1266.48
2023-03-22T10:54:26.250Z,1226.07
2023-03-22T10:55:25.817Z,1217.19
2023-03-22T10:56:25.787Z,1205.20
2023-03-22T10:57:25.786Z,1248.84
2023-03-22T10:58:25.766Z,1321.22
2023-03-22T10:59:25.745Z,1331.68
2023-03-22T11:00:25.775Z,1329.05
2023-03-22T11:01:25.995Z,1283.40
2023-03-22T11:02:25.877Z,1259.36
2023-03-22T11:03:25.734Z,1213.90
2023-03-22T11:04:25.695Z,1195.56
2023-03-22T11:05:25.694Z,1132.15
2023-03-22T11:06:25.684Z,1142.73
2023-03-22T11:07:25.692Z,1247.68
2023-03-22T11:08:25.656Z,1223.84
2023-03-22T11:09:25.636Z,1198.75
2023-03-22T11:10:25.702Z,1255.83
2023-03-22T11:11:25.631Z,1298.26
2023-03-22T11:12:25.610Z,1295.76
2023-03-22T11:13:25.637Z,1273.67
2023-03-22T11:14:25.574Z,1297.01
2023-03-22T11:15:25.572Z,1401.04
2023-03-22T11:16:25.608Z,1409.85
2023-03-22T11:17:25.571Z,1417.28
2023-03-22T11:18:25.536Z,1321.22
2023-03-22T11:19:25.578Z,1329.05
2023-03-22T11:20:25.590Z,1307.09
2023-03-22T11:21:25.512Z,1170.58
2023-03-22T11:22:25.512Z,1222.73
2023-03-22T11:23:25.508Z,1250.00
2023-03-22T11:24:25.482Z,1240.78
2023-03-22T11:25:25.485Z,1282.17
2023-03-22T11:27:25.465Z,1203.04
2023-03-22T11:28:25.431Z,1261.73
2023-03-22T11:29:25.429Z,1264.10
2023-03-22T11:30:25.447Z,1299.52
2023-03-22T11:31:25.472Z,1216.09
2023-03-22T11:32:25.472Z,1207.36
2023-03-22T11:33:25.372Z,1248.84
2023-03-22T11:34:25.364Z,1258.19
2023-03-22T11:35:25.391Z,1257.01
2023-03-22T11:36:25.369Z,1268.87
2023-03-22T11:37:25.361Z,1188.16
2023-03-22T11:38:25.311Z,1188.16
2023-03-22T11:39:25.400Z,1158.48
2023-03-22T11:40:25.320Z,1299.52
2023-03-22T11:41:25.333Z,1318.63
2023-03-22T11:42:25.282Z,1271.27
2023-03-22T11:43:25.299Z,1379.49
2023-03-22T11:44:25.271Z,1412.81
2023-03-22T11:45:25.240Z,1340.98
2023-03-22T11:46:25.278Z,1335.65
2023-03-22T11:47:25.263Z,1326.43
2023-03-22T11:48:25.315Z,1259.36
2023-03-22T11:49:25.257Z,1182.94
2023-03-22T11:50:25.211Z,1218.30
2023-03-22T11:51:25.194Z,1288.31
2023-03-22T11:52:25.177Z,1243.07
2023-03-22T11:53:25.194Z,1236.21
2023-03-22T11:54:25.150Z,1216.09
2023-03-22T11:55:25.170Z,1161.48
2023-03-22T11:56:25.152Z,1145.66
2023-03-22T11:57:25.162Z,1176.73
2023-03-22T11:58:25.123Z,1266.48
2023-03-22T11:59:25.111Z,1177.76
2023-03-22T12:00:25.097Z,1279.73
2023-03-22T12:01:25.142Z,1283.40
2023-03-22T12:02:25.244Z,1243.07
2023-03-22T12:03:25.213Z,1251.16
2023-03-22T12:04:25.121Z,1236.21
2023-03-22T12:05:25.068Z,1191.32
2023-03-22T12:06:25.101Z,1140.80
2023-03-22T12:07:25.056Z,1143.71
2023-03-22T12:08:25.065Z,1094.39
2023-03-22T12:09:25.015Z,1153.52
2023-03-22T12:10:25.059Z,1228.31
2023-03-22T12:11:25.040Z,1244.22
2023-03-22T12:12:25.039Z,1247.68
2023-03-22T12:13:25.074Z,1300.77
2023-03-22T12:14:25.070Z,1310.92
2023-03-22T12:15:24.952Z,1264.10
2023-03-22T12:16:25.264Z,1192.38
2023-03-22T12:17:24.910Z,1181.90
2023-03-22T12:18:24.976Z,1208.44
2023-03-22T12:19:24.949Z,1260.54
2023-03-22T12:20:24.881Z,1278.52
2023-03-22T12:21:24.871Z,1294.51
2023-03-22T12:22:24.854Z,1236.21
2023-03-22T12:23:24.847Z,1168.55
2023-03-22T12:24:24.830Z,1151.54
2023-03-22T12:25:25.334Z,1112.49
2023-03-22T12:26:24.817Z,1102.46
2023-03-22T12:27:24.834Z,1097.06
2023-03-22T12:28:24.799Z,1074.28
2023-03-22T12:29:24.768Z,1019.71
2023-03-22T12:30:24.771Z,949.19
2023-03-22T12:31:24.870Z,900.87
2023-03-22T12:32:24.786Z,921.23
2023-03-22T12:33:24.758Z,974.64
2023-03-22T12:34:24.711Z,1061.56
2023-03-22T12:35:24.730Z,1082.06
2023-03-22T12:36:24.757Z,1020.48
2023-03-22T12:37:24.702Z,1014.33
2023-03-22T12:38:24.665Z,1051.60
2023-03-22T12:39:24.649Z,1012.80
2023-03-22T12:40:24.657Z,1006.74
2023-03-22T12:41:24.634Z,1002.98
2023-03-22T12:42:24.632Z,997.77
2023-03-22T12:43:24.637Z,1002.23
2023-03-22T12:44:24.623Z,986.79
2023-03-22T12:45:24.582Z,1010.52
2023-03-22T12:46:24.601Z,1091.72
2023-03-22T12:47:24.621Z,1074.28
2023-03-22T12:48:24.675Z,1075.14